sensor_id;sensor_type;location;lat;lon;timestamp;temperature;humidity
21090;DHT22;10703;51.020;6.128;2023-04-23T00:01:46;8.90;99.90
21090;DHT22;10703;51.020;6.128;2023-04-23T00:04:15;8.90;99.90
21090;DHT22;10703;51.020;6.128;2023-04-23T00:06:45;8.80;99.90
21090;DHT22;10703;51.020;6.128;2023-04-23T00:09:14;8.80;99.90
21090;DHT22;10703;51.020;6.128;2023-04-23T00:11:42;8.80;99.90
21090;DHT22;10703;51.020;6.128;2023-04-23T00:14:10;8.80;99.90
21090;DHT22;10703;51.020;6.128;2023-04-23T00:16:38;8.90;99.90
21090;DHT22;10703;51.020;6.128;2023-04-23T00:19:06;8.90;99.90
21090;DHT22;10703;51.020;6.128;2023-04-23T00:21:32;8.90;99.90
21090;DHT22;10703;51.020;6.128;2023-04-23T00:23:59;8.90;99.90
21090;DHT22;10703;51.020;6.128;2023-04-23T00:26:26;8.90;99.90
21090;DHT22;10703;51.020;6.128;2023-04-23T00:28:52;8.90;99.90
21090;DHT22;10703;51.020;6.128;2023-04-23T00:31:19;8.90;99.90
21090;DHT22;10703;51.020;6.128;2023-04-23T00:33:47;8.90;99.90
21090;DHT22;10703;51.020;6.128;2023-04-23T00:36:14;8.90;99.90
21090;DHT22;10703;51.020;6.128;2023-04-23T00:38:41;8.90;99.90
21090;DHT22;10703;51.020;6.128;2023-04-23T00:41:07;8.90;99.90
21090;DHT22;10703;51.020;6.128;2023-04-23T00:43:34;8.90;99.90
21090;DHT22;10703;51.020;6.128;2023-04-23T00:46:00;8.80;99.90
21090;DHT22;10703;51.020;6.128;2023-04-23T00:48:28;8.80;99.90
21090;DHT22;10703;51.020;6.128;2023-04-23T00:50:59;8.80;99.90
21090;DHT22;10703;51.020;6.128;2023-04-23T00:53:28;8.80;99.90
21090;DHT22;10703;51.020;6.128;2023-04-23T00:55:55;8.80;99.90
21090;DHT22;10703;51.020;6.128;2023-04-23T00:58:22;8.70;99.90
21090;DHT22;10703;51.020;6.128;2023-04-23T01:00:49;8.60;99.90
21090;DHT22;10703;51.020;6.128;2023-04-23T01:03:17;8.60;99.90
21090;DHT22;10703;51.020;6.128;2023-04-23T01:05:47;8.50;99.90
21090;DHT22;10703;51.020;6.128;2023-04-23T01:08:16;8.50;99.90
21090;DHT22;10703;51.020;6.128;2023-04-23T01:10:44;8.40;99.90
21090;DHT22;10703;51.020;6.128;2023-04-23T01:13:12;8.30;99.90
21090;DHT22;10703;51.020;6.128;2023-04-23T01:15:39;8.30;99.90
21090;DHT22;10703;51.020;6.128;2023-04-23T01:18:05;8.20;99.90
21090;DHT22;10703;51.020;6.128;2023-04-23T01:20:35;8.20;99.90
21090;DHT22;10703;51.020;6.128;2023-04-23T01:23:03;8.30;99.90
21090;DHT22;10703;51.020;6.128;2023-04-23T01:25:33;8.40;99.90
21090;DHT22;10703;51.020;6.128;2023-04-23T01:28:00;8.60;99.90
21090;DHT22;10703;51.020;6.128;2023-04-23T01:30:27;8.70;99.90
21090;DHT22;10703;51.020;6.128;2023-04-23T01:32:55;8.70;99.90
21090;DHT22;10703;51.020;6.128;2023-04-23T01:35:23;8.80;99.90
21090;DHT22;10703;51.020;6.128;2023-04-23T01:37:50;8.80;99.90
21090;DHT22;10703;51.020;6.128;2023-04-23T01:40:19;8.90;99.90
21090;DHT22;10703;51.020;6.128;2023-04-23T01:42:47;8.90;99.90
21090;DHT22;10703;51.020;6.128;2023-04-23T01:45:13;9.00;99.90
21090;DHT22;10703;51.020;6.128;2023-04-23T01:47:40;9.00;99.90
21090;DHT22;10703;51.020;6.128;2023-04-23T01:50:08;9.10;99.90
21090;DHT22;10703;51.020;6.128;2023-04-23T01:52:35;9.10;99.90
21090;DHT22;10703;51.020;6.128;2023-04-23T01:55:02;9.20;99.90
21090;DHT22;10703;51.020;6.128;2023-04-23T01:57:28;9.20;99.90
21090;DHT22;10703;51.020;6.128;2023-04-23T02:00:14;9.20;99.90
21090;DHT22;10703;51.020;6.128;2023-04-23T02:02:42;9.10;99.90
21090;DHT22;10703;51.020;6.128;2023-04-23T02:05:15;9.10;99.90
21090;DHT22;10703;51.020;6.128;2023-04-23T02:07:42;9.10;99.90
21090;DHT22;10703;51.020;6.128;2023-04-23T02:10:10;9.10;99.90
21090;DHT22;10703;51.020;6.128;2023-04-23T02:12:37;9.20;99.90
21090;DHT22;10703;51.020;6.128;2023-04-23T02:15:05;9.20;99.90
21090;DHT22;10703;51.020;6.128;2023-04-23T02:17:32;9.20;99.90
21090;DHT22;10703;51.020;6.128;2023-04-23T02:19:59;9.10;99.90
21090;DHT22;10703;51.020;6.128;2023-04-23T02:22:26;9.10;99.90
21090;DHT22;10703;51.020;6.128;2023-04-23T02:24:53;9.00;99.90
21090;DHT22;10703;51.020;6.128;2023-04-23T02:27:21;8.90;99.90
21090;DHT22;10703;51.020;6.128;2023-04-23T02:29:48;9.00;99.90
21090;DHT22;10703;51.020;6.128;2023-04-23T02:32:14;9.00;99.90
21090;DHT22;10703;51.020;6.128;2023-04-23T02:34:41;9.00;99.90
21090;DHT22;10703;51.020;6.128;2023-04-23T02:37:08;8.90;99.90
21090;DHT22;10703;51.020;6.128;2023-04-23T02:39:35;8.80;99.90
21090;DHT22;10703;51.020;6.128;2023-04-23T02:42:04;8.70;99.90
21090;DHT22;10703;51.020;6.128;2023-04-23T02:44:30;8.70;99.90
21090;DHT22;10703;51.020;6.128;2023-04-23T02:46:57;8.70;99.90
21090;DHT22;10703;51.020;6.128;2023-04-23T02:49:24;8.60;99.90
21090;DHT22;10703;51.020;6.128;2023-04-23T02:51:51;8.60;99.90
21090;DHT22;10703;51.020;6.128;2023-04-23T02:54:18;8.60;99.90
21090;DHT22;10703;51.020;6.128;2023-04-23T02:56:44;8.60;99.90
21090;DHT22;10703;51.020;6.128;2023-04-23T02:59:12;8.60;99.90
21090;DHT22;10703;51.020;6.128;2023-04-23T03:01:38;8.50;99.90
21090;DHT22;10703;51.020;6.128;2023-04-23T03:04:05;8.60;99.90
21090;DHT22;10703;51.020;6.128;2023-04-23T03:06:33;8.70;99.90
21090;DHT22;10703;51.020;6.128;2023-04-23T03:09:01;8.70;99.90
21090;DHT22;10703;51.020;6.128;2023-04-23T03:11:27;8.60;99.90
21090;DHT22;10703;51.020;6.128;2023-04-23T03:13:54;8.80;99.90
21090;DHT22;10703;51.020;6.128;2023-04-23T03:16:20;8.90;99.90
21090;DHT22;10703;51.020;6.128;2023-04-23T03:18:47;8.90;99.90
21090;DHT22;10703;51.020;6.128;2023-04-23T03:21:13;9.00;99.90
21090;DHT22;10703;51.020;6.128;2023-04-23T03:23:40;9.00;99.90
21090;DHT22;10703;51.020;6.128;2023-04-23T03:26:06;9.00;99.90
21090;DHT22;10703;51.020;6.128;2023-04-23T03:28:33;8.90;99.90
21090;DHT22;10703;51.020;6.128;2023-04-23T03:30:59;9.00;99.90
21090;DHT22;10703;51.020;6.128;2023-04-23T03:33:26;9.00;99.90
21090;DHT22;10703;51.020;6.128;2023-04-23T03:35:53;9.20;99.90
21090;DHT22;10703;51.020;6.128;2023-04-23T03:38:19;9.30;99.90
21090;DHT22;10703;51.020;6.128;2023-04-23T03:40:46;9.50;99.90
21090;DHT22;10703;51.020;6.128;2023-04-23T03:43:12;9.60;99.90
21090;DHT22;10703;51.020;6.128;2023-04-23T03:45:39;9.70;99.90
21090;DHT22;10703;51.020;6.128;2023-04-23T03:48:05;9.90;99.90
21090;DHT22;10703;51.020;6.128;2023-04-23T03:50:32;9.90;99.90
21090;DHT22;10703;51.020;6.128;2023-04-23T03:53:04;9.90;99.90
21090;DHT22;10703;51.020;6.128;2023-04-23T03:55:30;10.00;99.90
21090;DHT22;10703;51.020;6.128;2023-04-23T03:57:57;10.10;99.90
21090;DHT22;10703;51.020;6.128;2023-04-23T04:00:27;10.10;99.90
21090;DHT22;10703;51.020;6.128;2023-04-23T04:02:53;10.20;99.90
21090;DHT22;10703;51.020;6.128;2023-04-23T04:05:21;10.30;99.90
21090;DHT22;10703;51.020;6.128;2023-04-23T04:07:48;10.30;99.90
21090;DHT22;10703;51.020;6.128;2023-04-23T04:10:15;10.30;99.90
21090;DHT22;10703;51.020;6.128;2023-04-23T04:12:41;10.40;99.90
21090;DHT22;10703;51.020;6.128;2023-04-23T04:15:10;10.50;99.90
21090;DHT22;10703;51.020;6.128;2023-04-23T04:17:36;10.50;99.90
21090;DHT22;10703;51.020;6.128;2023-04-23T04:20:04;10.60;99.90
21090;DHT22;10703;51.020;6.128;2023-04-23T04:22:32;10.70;99.90
21090;DHT22;10703;51.020;6.128;2023-04-23T04:24:58;10.70;99.90
21090;DHT22;10703;51.020;6.128;2023-04-23T04:27:25;10.80;99.90
21090;DHT22;10703;51.020;6.128;2023-04-23T04:29:52;10.70;99.90
21090;DHT22;10703;51.020;6.128;2023-04-23T04:32:19;10.70;99.90
21090;DHT22;10703;51.020;6.128;2023-04-23T04:34:45;10.90;99.90
21090;DHT22;10703;51.020;6.128;2023-04-23T04:37:12;10.90;99.90
21090;DHT22;10703;51.020;6.128;2023-04-23T04:39:39;10.90;99.90
21090;DHT22;10703;51.020;6.128;2023-04-23T04:42:05;10.90;99.90
21090;DHT22;10703;51.020;6.128;2023-04-23T04:44:33;10.90;99.90
21090;DHT22;10703;51.020;6.128;2023-04-23T04:47:02;11.00;99.90
21090;DHT22;10703;51.020;6.128;2023-04-23T04:49:29;10.90;99.90
21090;DHT22;10703;51.020;6.128;2023-04-23T04:51:56;10.90;99.90
21090;DHT22;10703;51.020;6.128;2023-04-23T04:54:22;11.10;99.90
21090;DHT22;10703;51.020;6.128;2023-04-23T04:56:49;11.10;99.90
21090;DHT22;10703;51.020;6.128;2023-04-23T04:59:15;11.30;99.90
21090;DHT22;10703;51.020;6.128;2023-04-23T05:01:42;11.30;99.90
21090;DHT22;10703;51.020;6.128;2023-04-23T05:04:09;11.20;99.90
21090;DHT22;10703;51.020;6.128;2023-04-23T05:06:36;11.20;99.90
21090;DHT22;10703;51.020;6.128;2023-04-23T05:09:03;11.10;99.90
21090;DHT22;10703;51.020;6.128;2023-04-23T05:11:29;11.10;99.90
21090;DHT22;10703;51.020;6.128;2023-04-23T05:13:57;11.10;99.90
21090;DHT22;10703;51.020;6.128;2023-04-23T05:16:23;11.10;99.90
21090;DHT22;10703;51.020;6.128;2023-04-23T05:18:50;11.20;99.90
21090;DHT22;10703;51.020;6.128;2023-04-23T05:21:17;11.20;99.90
21090;DHT22;10703;51.020;6.128;2023-04-23T05:23:44;11.40;99.90
21090;DHT22;10703;51.020;6.128;2023-04-23T05:26:11;11.40;99.90
21090;DHT22;10703;51.020;6.128;2023-04-23T05:28:38;11.50;99.90
21090;DHT22;10703;51.020;6.128;2023-04-23T05:31:04;11.50;99.90
21090;DHT22;10703;51.020;6.128;2023-04-23T05:33:31;11.50;99.90
21090;DHT22;10703;51.020;6.128;2023-04-23T05:36:12;11.60;99.90
21090;DHT22;10703;51.020;6.128;2023-04-23T05:38:38;11.70;99.90
21090;DHT22;10703;51.020;6.128;2023-04-23T05:41:05;11.60;99.90
21090;DHT22;10703;51.020;6.128;2023-04-23T05:43:31;11.60;99.90
21090;DHT22;10703;51.020;6.128;2023-04-23T05:45:58;11.50;99.90
21090;DHT22;10703;51.020;6.128;2023-04-23T05:48:25;11.40;99.90
21090;DHT22;10703;51.020;6.128;2023-04-23T05:50:51;11.50;99.90
21090;DHT22;10703;51.020;6.128;2023-04-23T05:53:18;11.50;99.90
21090;DHT22;10703;51.020;6.128;2023-04-23T05:55:44;11.60;99.90
21090;DHT22;10703;51.020;6.128;2023-04-23T05:58:11;11.60;99.90
21090;DHT22;10703;51.020;6.128;2023-04-23T06:00:38;11.70;99.90
21090;DHT22;10703;51.020;6.128;2023-04-23T06:03:06;11.70;99.90
21090;DHT22;10703;51.020;6.128;2023-04-23T06:05:32;11.70;99.90
21090;DHT22;10703;51.020;6.128;2023-04-23T06:07:59;11.60;99.90
21090;DHT22;10703;51.020;6.128;2023-04-23T06:10:26;11.70;99.90
21090;DHT22;10703;51.020;6.128;2023-04-23T06:12:52;11.90;99.90
21090;DHT22;10703;51.020;6.128;2023-04-23T06:15:20;11.90;99.90
21090;DHT22;10703;51.020;6.128;2023-04-23T06:17:52;12.00;99.90
21090;DHT22;10703;51.020;6.128;2023-04-23T06:20:19;12.10;99.90
21090;DHT22;10703;51.020;6.128;2023-04-23T06:22:46;12.30;99.90
21090;DHT22;10703;51.020;6.128;2023-04-23T06:25:12;12.40;99.90
21090;DHT22;10703;51.020;6.128;2023-04-23T06:27:39;12.60;99.90
21090;DHT22;10703;51.020;6.128;2023-04-23T06:30:06;12.60;99.90
21090;DHT22;10703;51.020;6.128;2023-04-23T06:32:34;12.80;99.90
21090;DHT22;10703;51.020;6.128;2023-04-23T06:35:00;12.80;99.90
21090;DHT22;10703;51.020;6.128;2023-04-23T06:37:28;13.00;99.90
21090;DHT22;10703;51.020;6.128;2023-04-23T06:39:59;13.20;99.90
21090;DHT22;10703;51.020;6.128;2023-04-23T06:42:26;13.30;99.90
21090;DHT22;10703;51.020;6.128;2023-04-23T06:44:53;13.30;99.90
21090;DHT22;10703;51.020;6.128;2023-04-23T06:47:20;13.40;99.90
21090;DHT22;10703;51.020;6.128;2023-04-23T06:49:46;13.50;99.90
21090;DHT22;10703;51.020;6.128;2023-04-23T06:52:13;13.60;99.90
21090;DHT22;10703;51.020;6.128;2023-04-23T06:54:39;13.60;99.90
21090;DHT22;10703;51.020;6.128;2023-04-23T06:57:06;13.70;99.90
21090;DHT22;10703;51.020;6.128;2023-04-23T06:59:33;13.90;99.90
21090;DHT22;10703;51.020;6.128;2023-04-23T07:02:00;14.40;99.90
21090;DHT22;10703;51.020;6.128;2023-04-23T07:04:26;14.80;99.90
21090;DHT22;10703;51.020;6.128;2023-04-23T07:06:53;15.40;99.90
21090;DHT22;10703;51.020;6.128;2023-04-23T07:09:20;16.00;99.90
21090;DHT22;10703;51.020;6.128;2023-04-23T07:11:46;16.00;99.90
21090;DHT22;10703;51.020;6.128;2023-04-23T07:14:13;16.50;99.90
21090;DHT22;10703;51.020;6.128;2023-04-23T07:16:40;16.70;99.90
21090;DHT22;10703;51.020;6.128;2023-04-23T07:19:06;17.10;99.90
21090;DHT22;10703;51.020;6.128;2023-04-23T07:21:33;17.10;99.90
21090;DHT22;10703;51.020;6.128;2023-04-23T07:23:59;17.30;99.90
21090;DHT22;10703;51.020;6.128;2023-04-23T07:26:32;17.90;99.90
21090;DHT22;10703;51.020;6.128;2023-04-23T07:28:59;17.80;99.90
21090;DHT22;10703;51.020;6.128;2023-04-23T07:31:27;18.10;99.90
21090;DHT22;10703;51.020;6.128;2023-04-23T07:33:57;18.80;99.90
21090;DHT22;10703;51.020;6.128;2023-04-23T07:36:23;18.60;99.90
21090;DHT22;10703;51.020;6.128;2023-04-23T07:38:50;17.90;99.90
21090;DHT22;10703;51.020;6.128;2023-04-23T07:41:17;17.90;99.90
21090;DHT22;10703;51.020;6.128;2023-04-23T07:43:44;17.80;99.90
21090;DHT22;10703;51.020;6.128;2023-04-23T07:46:11;17.70;99.90
21090;DHT22;10703;51.020;6.128;2023-04-23T07:48:37;17.80;99.90
21090;DHT22;10703;51.020;6.128;2023-04-23T07:51:04;17.90;99.90
21090;DHT22;10703;51.020;6.128;2023-04-23T07:53:31;17.40;99.90
21090;DHT22;10703;51.020;6.128;2023-04-23T07:55:59;17.50;99.90
21090;DHT22;10703;51.020;6.128;2023-04-23T07:58:26;17.80;99.90
21090;DHT22;10703;51.020;6.128;2023-04-23T08:00:52;18.00;99.90
21090;DHT22;10703;51.020;6.128;2023-04-23T08:03:19;17.60;99.90
21090;DHT22;10703;51.020;6.128;2023-04-23T08:05:46;18.50;99.90
21090;DHT22;10703;51.020;6.128;2023-04-23T08:08:13;18.50;99.90
21090;DHT22;10703;51.020;6.128;2023-04-23T08:10:40;18.40;99.90
21090;DHT22;10703;51.020;6.128;2023-04-23T08:13:06;18.60;99.90
21090;DHT22;10703;51.020;6.128;2023-04-23T08:15:33;18.30;99.90
21090;DHT22;10703;51.020;6.128;2023-04-23T08:18:00;18.90;99.90
21090;DHT22;10703;51.020;6.128;2023-04-23T08:20:26;19.50;99.90
21090;DHT22;10703;51.020;6.128;2023-04-23T08:22:53;19.10;99.90
21090;DHT22;10703;51.020;6.128;2023-04-23T08:25:21;18.10;99.90
21090;DHT22;10703;51.020;6.128;2023-04-23T08:27:47;18.20;99.90
21090;DHT22;10703;51.020;6.128;2023-04-23T08:30:14;18.60;99.90
21090;DHT22;10703;51.020;6.128;2023-04-23T08:32:41;19.40;99.90
21090;DHT22;10703;51.020;6.128;2023-04-23T08:35:08;19.80;99.90
21090;DHT22;10703;51.020;6.128;2023-04-23T08:37:34;19.70;99.90
21090;DHT22;10703;51.020;6.128;2023-04-23T08:40:01;19.70;99.90
21090;DHT22;10703;51.020;6.128;2023-04-23T08:45:07;19.00;99.90
21090;DHT22;10703;51.020;6.128;2023-04-23T08:47:34;18.90;99.90
21090;DHT22;10703;51.020;6.128;2023-04-23T08:50:03;20.10;99.90
21090;DHT22;10703;51.020;6.128;2023-04-23T08:52:32;19.80;99.90
21090;DHT22;10703;51.020;6.128;2023-04-23T08:55:03;19.90;99.90
21090;DHT22;10703;51.020;6.128;2023-04-23T08:57:32;20.00;99.90
21090;DHT22;10703;51.020;6.128;2023-04-23T08:59:59;19.90;99.90
21090;DHT22;10703;51.020;6.128;2023-04-23T09:02:33;20.00;99.90
21090;DHT22;10703;51.020;6.128;2023-04-23T09:05:02;19.20;99.90
21090;DHT22;10703;51.020;6.128;2023-04-23T09:07:29;19.20;99.90
21090;DHT22;10703;51.020;6.128;2023-04-23T09:09:56;19.70;99.90
21090;DHT22;10703;51.020;6.128;2023-04-23T09:12:22;20.40;99.90
21090;DHT22;10703;51.020;6.128;2023-04-23T09:14:49;20.00;99.90
21090;DHT22;10703;51.020;6.128;2023-04-23T09:17:17;20.30;99.90
21090;DHT22;10703;51.020;6.128;2023-04-23T09:19:44;20.60;99.90
21090;DHT22;10703;51.020;6.128;2023-04-23T09:22:14;20.30;99.90
21090;DHT22;10703;51.020;6.128;2023-04-23T09:24:41;19.30;99.90
21090;DHT22;10703;51.020;6.128;2023-04-23T09:27:11;19.30;99.90
21090;DHT22;10703;51.020;6.128;2023-04-23T09:29:37;19.30;99.90
21090;DHT22;10703;51.020;6.128;2023-04-23T09:32:08;19.20;99.90
21090;DHT22;10703;51.020;6.128;2023-04-23T09:34:36;19.20;99.90
21090;DHT22;10703;51.020;6.128;2023-04-23T09:37:04;19.90;99.90
21090;DHT22;10703;51.020;6.128;2023-04-23T09:39:33;19.50;99.90
21090;DHT22;10703;51.020;6.128;2023-04-23T09:42:04;18.70;99.90
21090;DHT22;10703;51.020;6.128;2023-04-23T09:44:32;18.90;99.90
21090;DHT22;10703;51.020;6.128;2023-04-23T09:47:07;18.50;99.90
21090;DHT22;10703;51.020;6.128;2023-04-23T09:50:01;18.40;99.90
21090;DHT22;10703;51.020;6.128;2023-04-23T09:52:30;18.70;99.90
21090;DHT22;10703;51.020;6.128;2023-04-23T09:55:00;18.70;99.90
21090;DHT22;10703;51.020;6.128;2023-04-23T09:57:27;18.80;99.90
21090;DHT22;10703;51.020;6.128;2023-04-23T09:59:56;18.80;99.90
21090;DHT22;10703;51.020;6.128;2023-04-23T10:02:45;18.60;99.90
21090;DHT22;10703;51.020;6.128;2023-04-23T10:05:22;18.60;99.90
21090;DHT22;10703;51.020;6.128;2023-04-23T10:07:59;18.80;99.90
21090;DHT22;10703;51.020;6.128;2023-04-23T10:10:26;18.80;99.90
21090;DHT22;10703;51.020;6.128;2023-04-23T10:12:53;18.70;99.90
21090;DHT22;10703;51.020;6.128;2023-04-23T10:15:25;19.10;99.90
21090;DHT22;10703;51.020;6.128;2023-04-23T10:17:53;18.70;99.90
21090;DHT22;10703;51.020;6.128;2023-04-23T10:20:21;18.40;99.90
21090;DHT22;10703;51.020;6.128;2023-04-23T10:22:48;18.40;99.90
21090;DHT22;10703;51.020;6.128;2023-04-23T10:25:17;18.70;99.90
21090;DHT22;10703;51.020;6.128;2023-04-23T10:27:46;19.00;99.90
21090;DHT22;10703;51.020;6.128;2023-04-23T10:30:19;18.60;99.90
21090;DHT22;10703;51.020;6.128;2023-04-23T10:32:47;19.00;99.90
21090;DHT22;10703;51.020;6.128;2023-04-23T10:35:15;19.00;99.90
21090;DHT22;10703;51.020;6.128;2023-04-23T10:37:43;19.30;99.90
21090;DHT22;10703;51.020;6.128;2023-04-23T10:40:13;19.10;99.90
21090;DHT22;10703;51.020;6.128;2023-04-23T10:42:42;17.80;99.90
21090;DHT22;10703;51.020;6.128;2023-04-23T10:45:15;17.10;99.90
21090;DHT22;10703;51.020;6.128;2023-04-23T10:47:52;17.10;99.90
21090;DHT22;10703;51.020;6.128;2023-04-23T10:52:50;17.40;99.90
21090;DHT22;10703;51.020;6.128;2023-04-23T10:55:21;17.40;99.90
21090;DHT22;10703;51.020;6.128;2023-04-23T10:58:04;17.30;99.90
21090;DHT22;10703;51.020;6.128;2023-04-23T11:05:53;17.60;99.90
21090;DHT22;10703;51.020;6.128;2023-04-23T11:08:19;17.80;99.90
21090;DHT22;10703;51.020;6.128;2023-04-23T11:10:57;17.60;99.90
21090;DHT22;10703;51.020;6.128;2023-04-23T11:13:28;17.40;99.90
21090;DHT22;10703;51.020;6.128;2023-04-23T11:16:14;17.70;99.90
21090;DHT22;10703;51.020;6.128;2023-04-23T11:19:07;17.80;99.90
21090;DHT22;10703;51.020;6.128;2023-04-23T11:21:56;17.70;99.90
21090;DHT22;10703;51.020;6.128;2023-04-23T11:24:34;17.50;99.90
21090;DHT22;10703;51.020;6.128;2023-04-23T11:27:08;17.70;99.90
21090;DHT22;10703;51.020;6.128;2023-04-23T11:29:36;17.90;99.90
21090;DHT22;10703;51.020;6.128;2023-04-23T11:32:03;18.00;99.90
21090;DHT22;10703;51.020;6.128;2023-04-23T11:34:32;18.00;98.90
21090;DHT22;10703;51.020;6.128;2023-04-23T11:36:59;18.10;99.90
21090;DHT22;10703;51.020;6.128;2023-04-23T11:39:27;18.40;99.90
21090;DHT22;10703;51.020;6.128;2023-04-23T11:41:54;18.60;99.90
21090;DHT22;10703;51.020;6.128;2023-04-23T11:44:21;19.40;99.90
21090;DHT22;10703;51.020;6.128;2023-04-23T11:46:48;20.30;98.50
21090;DHT22;10703;51.020;6.128;2023-04-23T11:49:18;20.70;99.90
21090;DHT22;10703;51.020;6.128;2023-04-23T11:51:46;21.30;98.90
21090;DHT22;10703;51.020;6.128;2023-04-23T11:54:13;22.00;98.30
21090;DHT22;10703;51.020;6.128;2023-04-23T11:56:40;21.20;96.10
21090;DHT22;10703;51.020;6.128;2023-04-23T11:59:07;20.40;96.70
21090;DHT22;10703;51.020;6.128;2023-04-23T12:01:55;19.30;97.70
21090;DHT22;10703;51.020;6.128;2023-04-23T12:04:24;19.10;99.80
21090;DHT22;10703;51.020;6.128;2023-04-23T12:06:55;19.30;98.60
21090;DHT22;10703;51.020;6.128;2023-04-23T12:09:23;19.70;96.80
21090;DHT22;10703;51.020;6.128;2023-04-23T12:11:50;20.00;98.10
21090;DHT22;10703;51.020;6.128;2023-04-23T12:14:19;19.10;98.70
21090;DHT22;10703;51.020;6.128;2023-04-23T12:16:49;20.10;98.50
21090;DHT22;10703;51.020;6.128;2023-04-23T12:19:29;21.10;95.80
21090;DHT22;10703;51.020;6.128;2023-04-23T12:22:00;20.50;97.30
21090;DHT22;10703;51.020;6.128;2023-04-23T12:24:45;20.30;97.80
21090;DHT22;10703;51.020;6.128;2023-04-23T12:27:14;21.10;96.40
21090;DHT22;10703;51.020;6.128;2023-04-23T12:29:41;21.70;95.90
21090;DHT22;10703;51.020;6.128;2023-04-23T12:32:10;21.60;95.10
21090;DHT22;10703;51.020;6.128;2023-04-23T12:34:50;20.80;94.50
21090;DHT22;10703;51.020;6.128;2023-04-23T12:37:25;20.50;96.70
21090;DHT22;10703;51.020;6.128;2023-04-23T12:39:52;19.80;97.00
21090;DHT22;10703;51.020;6.128;2023-04-23T12:42:21;19.00;96.30
21090;DHT22;10703;51.020;6.128;2023-04-23T12:44:48;19.50;96.70
21090;DHT22;10703;51.020;6.128;2023-04-23T12:47:17;19.20;97.00
21090;DHT22;10703;51.020;6.128;2023-04-23T12:49:45;19.30;97.60
21090;DHT22;10703;51.020;6.128;2023-04-23T12:52:15;19.70;94.90
21090;DHT22;10703;51.020;6.128;2023-04-23T12:54:41;19.90;96.10
21090;DHT22;10703;51.020;6.128;2023-04-23T12:57:11;19.90;96.50
21090;DHT22;10703;51.020;6.128;2023-04-23T12:59:37;19.70;95.90
21090;DHT22;10703;51.020;6.128;2023-04-23T13:02:04;20.00;95.00
21090;DHT22;10703;51.020;6.128;2023-04-23T13:04:34;19.90;95.50
21090;DHT22;10703;51.020;6.128;2023-04-23T13:07:01;19.60;95.50
21090;DHT22;10703;51.020;6.128;2023-04-23T13:09:28;19.50;95.80
21090;DHT22;10703;51.020;6.128;2023-04-23T13:11:54;20.10;96.30
21090;DHT22;10703;51.020;6.128;2023-04-23T13:14:21;19.90;96.90
21090;DHT22;10703;51.020;6.128;2023-04-23T13:16:48;20.20;97.10
21090;DHT22;10703;51.020;6.128;2023-04-23T13:19:15;19.60;97.70
21090;DHT22;10703;51.020;6.128;2023-04-23T13:21:42;19.00;98.30
21090;DHT22;10703;51.020;6.128;2023-04-23T13:24:09;18.30;96.50
21090;DHT22;10703;51.020;6.128;2023-04-23T13:26:36;17.60;97.40
21090;DHT22;10703;51.020;6.128;2023-04-23T13:29:03;17.50;98.40
21090;DHT22;10703;51.020;6.128;2023-04-23T13:31:29;17.60;97.70
21090;DHT22;10703;51.020;6.128;2023-04-23T13:33:56;17.30;99.00
21090;DHT22;10703;51.020;6.128;2023-04-23T13:36:23;17.20;98.30
21090;DHT22;10703;51.020;6.128;2023-04-23T13:38:50;17.00;99.50
21090;DHT22;10703;51.020;6.128;2023-04-23T13:41:17;16.80;99.00
21090;DHT22;10703;51.020;6.128;2023-04-23T13:43:43;16.70;99.90
21090;DHT22;10703;51.020;6.128;2023-04-23T13:46:10;16.70;99.90
21090;DHT22;10703;51.020;6.128;2023-04-23T13:48:37;16.60;99.90
21090;DHT22;10703;51.020;6.128;2023-04-23T13:51:03;16.70;99.90
21090;DHT22;10703;51.020;6.128;2023-04-23T13:53:42;16.60;99.90
21090;DHT22;10703;51.020;6.128;2023-04-23T13:56:09;16.70;99.90
21090;DHT22;10703;51.020;6.128;2023-04-23T13:58:35;16.40;99.90
21090;DHT22;10703;51.020;6.128;2023-04-23T14:01:03;16.50;99.90
21090;DHT22;10703;51.020;6.128;2023-04-23T14:03:30;16.40;99.90
21090;DHT22;10703;51.020;6.128;2023-04-23T14:05:56;16.00;99.90
21090;DHT22;10703;51.020;6.128;2023-04-23T14:08:24;15.50;99.90
21090;DHT22;10703;51.020;6.128;2023-04-23T14:10:50;15.20;99.90
21090;DHT22;10703;51.020;6.128;2023-04-23T14:13:17;14.90;99.90
21090;DHT22;10703;51.020;6.128;2023-04-23T14:15:44;14.50;99.90
21090;DHT22;10703;51.020;6.128;2023-04-23T14:18:10;14.20;99.90
21090;DHT22;10703;51.020;6.128;2023-04-23T14:20:37;13.80;99.90
21090;DHT22;10703;51.020;6.128;2023-04-23T14:26:31;13.50;99.90
21090;DHT22;10703;51.020;6.128;2023-04-23T14:29:09;13.30;99.90
21090;DHT22;10703;51.020;6.128;2023-04-23T14:31:42;13.20;99.90
21090;DHT22;10703;51.020;6.128;2023-04-23T14:34:09;13.00;99.90
21090;DHT22;10703;51.020;6.128;2023-04-23T14:36:36;13.00;99.90
21090;DHT22;10703;51.020;6.128;2023-04-23T14:39:03;12.80;99.90
21090;DHT22;10703;51.020;6.128;2023-04-23T14:41:31;12.80;99.90
21090;DHT22;10703;51.020;6.128;2023-04-23T14:44:01;12.80;99.90
21090;DHT22;10703;51.020;6.128;2023-04-23T14:46:28;12.80;99.90
21090;DHT22;10703;51.020;6.128;2023-04-23T14:48:54;12.80;99.90
21090;DHT22;10703;51.020;6.128;2023-04-23T14:51:22;12.90;99.90
21090;DHT22;10703;51.020;6.128;2023-04-23T14:53:50;12.80;99.90
21090;DHT22;10703;51.020;6.128;2023-04-23T14:56:16;12.80;99.90
21090;DHT22;10703;51.020;6.128;2023-04-23T14:58:43;12.80;99.90
21090;DHT22;10703;51.020;6.128;2023-04-23T15:01:10;12.80;99.90
21090;DHT22;10703;51.020;6.128;2023-04-23T15:03:37;12.80;99.90
21090;DHT22;10703;51.020;6.128;2023-04-23T15:06:05;12.80;99.90
21090;DHT22;10703;51.020;6.128;2023-04-23T15:08:32;12.80;99.90
21090;DHT22;10703;51.020;6.128;2023-04-23T15:10:59;12.70;99.90
21090;DHT22;10703;51.020;6.128;2023-04-23T15:13:42;12.70;99.90
21090;DHT22;10703;51.020;6.128;2023-04-23T15:16:18;12.70;99.90
21090;DHT22;10703;51.020;6.128;2023-04-23T15:19:09;12.80;99.90
21090;DHT22;10703;51.020;6.128;2023-04-23T15:21:36;12.80;99.90
21090;DHT22;10703;51.020;6.128;2023-04-23T15:24:03;12.90;99.90
21090;DHT22;10703;51.020;6.128;2023-04-23T15:26:30;13.00;99.90
21090;DHT22;10703;51.020;6.128;2023-04-23T15:28:58;13.10;99.90
21090;DHT22;10703;51.020;6.128;2023-04-23T15:31:25;13.20;99.90
21090;DHT22;10703;51.020;6.128;2023-04-23T15:33:52;13.20;99.90
21090;DHT22;10703;51.020;6.128;2023-04-23T15:36:18;13.30;99.90
21090;DHT22;10703;51.020;6.128;2023-04-23T15:38:45;13.30;99.90
21090;DHT22;10703;51.020;6.128;2023-04-23T15:41:11;13.50;99.90
21090;DHT22;10703;51.020;6.128;2023-04-23T15:43:39;13.70;99.90
21090;DHT22;10703;51.020;6.128;2023-04-23T15:46:05;13.90;99.90
21090;DHT22;10703;51.020;6.128;2023-04-23T15:48:32;14.10;99.90
21090;DHT22;10703;51.020;6.128;2023-04-23T15:50:58;14.50;99.90
21090;DHT22;10703;51.020;6.128;2023-04-23T15:53:26;14.70;99.90
21090;DHT22;10703;51.020;6.128;2023-04-23T15:55:53;15.00;99.90